Overview Statistics Trail Chart Weather Telemetry Raw packets
 

This is the latest recevied weather packets stored in our database for station/object N1NCB-3. If no packets are shown the sender has not sent any weather packets the latest 10 day(s).

<< 112 113 114 115 116 >>
Time Temp. Humidity Pressure Rain* Wind** Luminosity Snow
1787778807 31.67° C 45% 1013.5 hPa 0 mm - - -
1787778507 31.67° C 45% 1013.5 hPa 0 mm - - -
1787778207 31.67° C 46% 1013.5 hPa 0 mm - - -
1787777907 31.67° C 47% 1013.5 hPa 0 mm - - -
1787777607 30° C 49% 1013.5 hPa 0 mm - - -
1787777307 30° C 50% 1013.5 hPa 0 mm - - -
1787777007 30° C 50% 1013.5 hPa 0 mm - - -
1787776707 30° C 53% 1013.5 hPa 0 mm - - -
1787776407 27.78° C 57% 1013.5 hPa 0 mm - - -
1787776107 27.22° C 58% 1013.5 hPa 0 mm - - -
1787775807 26.11° C 59% 1013.5 hPa 0 mm - - -
1787775507 25.56° C 60% 1013.5 hPa 0 mm - - -
1787775207 25.56° C 60% 1013.5 hPa 0 mm - - -
1787774907 25.56° C 59% 1013.5 hPa 0 mm - - -
1787774607 25.56° C 60% 1013.5 hPa 0 mm - - -
1787774307 25.56° C 61% 1013.5 hPa 0 mm - - -
1787774007 26.11° C 60% 1013.5 hPa 0 mm - - -
1787773707 26.11° C 60% 1013.5 hPa 0 mm - - -
1787773407 26.11° C 60% 1013.5 hPa 0 mm - - -
1787773107 25.56° C 60% 1013.5 hPa 0 mm - - -
1787772807 25.56° C 62% 1013.5 hPa 0 mm - - -
1787772507 25° C 61% 1013.5 hPa 0 mm - - -
1787772207 25° C 61% 1013.5 hPa 0 mm - - -
1787771907 25.56° C 61% 1013.5 hPa 0 mm - - -
1787771607 25.56° C 59% 1013.5 hPa 0 mm - - -

* Rain latest hour (hover to see other rain measurements)
** Current wind speed in m/s (hover to see current wind gust speed)